sensor_id;sensor_type;location;lat;lon;timestamp;temperature;humidity
4356;DHT22;64374;51.482;7.408;2022-10-16T00:00:22;17.60;99.90
4356;DHT22;64374;51.482;7.408;2022-10-16T00:02:51;17.60;99.90
4356;DHT22;64374;51.482;7.408;2022-10-16T00:05:20;17.50;99.90
4356;DHT22;64374;51.482;7.408;2022-10-16T00:07:49;17.50;99.90
4356;DHT22;64374;51.482;7.408;2022-10-16T00:10:24;17.60;99.90
4356;DHT22;64374;51.482;7.408;2022-10-16T00:12:52;17.70;99.90
4356;DHT22;64374;51.482;7.408;2022-10-16T00:15:22;17.90;99.90
4356;DHT22;64374;51.482;7.408;2022-10-16T00:17:53;17.90;99.90
4356;DHT22;64374;51.482;7.408;2022-10-16T00:20:24;17.90;99.90
4356;DHT22;64374;51.482;7.408;2022-10-16T00:23:19;17.80;99.90
4356;DHT22;64374;51.482;7.408;2022-10-16T00:26:01;17.80;99.90
4356;DHT22;64374;51.482;7.408;2022-10-16T00:28:30;17.80;99.90
4356;DHT22;64374;51.482;7.408;2022-10-16T00:31:03;17.80;99.90
4356;DHT22;64374;51.482;7.408;2022-10-16T00:33:31;17.80;99.90
4356;DHT22;64374;51.482;7.408;2022-10-16T00:36:00;17.90;99.90
4356;DHT22;64374;51.482;7.408;2022-10-16T00:38:28;17.70;99.90
4356;DHT22;64374;51.482;7.408;2022-10-16T00:40:59;17.50;99.90
4356;DHT22;64374;51.482;7.408;2022-10-16T00:43:46;17.60;99.90
4356;DHT22;64374;51.482;7.408;2022-10-16T00:46:20;17.80;99.90
4356;DHT22;64374;51.482;7.408;2022-10-16T00:49:05;17.70;99.90
4356;DHT22;64374;51.482;7.408;2022-10-16T00:51:36;17.60;99.90
4356;DHT22;64374;51.482;7.408;2022-10-16T00:54:09;17.60;99.90
4356;DHT22;64374;51.482;7.408;2022-10-16T00:56:38;17.50;99.90
4356;DHT22;64374;51.482;7.408;2022-10-16T00:59:14;17.60;99.90
4356;DHT22;64374;51.482;7.408;2022-10-16T01:01:52;17.50;99.90
4356;DHT22;64374;51.482;7.408;2022-10-16T01:04:21;17.30;99.90
4356;DHT22;64374;51.482;7.408;2022-10-16T01:06:59;17.50;99.90
4356;DHT22;64374;51.482;7.408;2022-10-16T01:09:37;17.50;99.90
4356;DHT22;64374;51.482;7.408;2022-10-16T01:12:12;17.40;99.90
4356;DHT22;64374;51.482;7.408;2022-10-16T01:14:47;17.60;99.90
4356;DHT22;64374;51.482;7.408;2022-10-16T01:17:21;17.70;99.90
4356;DHT22;64374;51.482;7.408;2022-10-16T01:20:02;17.70;99.90
4356;DHT22;64374;51.482;7.408;2022-10-16T01:22:39;17.60;99.90
4356;DHT22;64374;51.482;7.408;2022-10-16T01:25:21;17.60;99.90
4356;DHT22;64374;51.482;7.408;2022-10-16T01:27:55;17.60;99.90
4356;DHT22;64374;51.482;7.408;2022-10-16T01:30:26;17.80;99.90
4356;DHT22;64374;51.482;7.408;2022-10-16T01:33:00;17.70;99.90
4356;DHT22;64374;51.482;7.408;2022-10-16T01:35:36;17.70;99.90
4356;DHT22;64374;51.482;7.408;2022-10-16T01:38:25;17.60;99.90
4356;DHT22;64374;51.482;7.408;2022-10-16T01:41:00;17.30;99.90
4356;DHT22;64374;51.482;7.408;2022-10-16T01:43:34;17.50;99.90
4356;DHT22;64374;51.482;7.408;2022-10-16T01:46:05;17.50;99.90
4356;DHT22;64374;51.482;7.408;2022-10-16T01:48:36;17.50;99.90
4356;DHT22;64374;51.482;7.408;2022-10-16T01:51:10;17.40;99.90
4356;DHT22;64374;51.482;7.408;2022-10-16T01:53:43;17.50;99.90
4356;DHT22;64374;51.482;7.408;2022-10-16T01:56:15;17.50;99.90
4356;DHT22;64374;51.482;7.408;2022-10-16T01:58:49;17.20;99.90
4356;DHT22;64374;51.482;7.408;2022-10-16T02:01:19;17.30;99.90
4356;DHT22;64374;51.482;7.408;2022-10-16T02:03:58;16.90;99.90
4356;DHT22;64374;51.482;7.408;2022-10-16T02:06:29;17.10;99.90
4356;DHT22;64374;51.482;7.408;2022-10-16T02:08:59;17.10;99.90
4356;DHT22;64374;51.482;7.408;2022-10-16T02:11:27;16.90;99.90
4356;DHT22;64374;51.482;7.408;2022-10-16T02:14:00;16.80;99.90
4356;DHT22;64374;51.482;7.408;2022-10-16T02:16:34;17.00;99.90
4356;DHT22;64374;51.482;7.408;2022-10-16T02:19:04;17.00;99.90
4356;DHT22;64374;51.482;7.408;2022-10-16T02:21:39;17.00;99.90
4356;DHT22;64374;51.482;7.408;2022-10-16T02:24:17;16.50;99.90
4356;DHT22;64374;51.482;7.408;2022-10-16T02:26:51;16.50;99.90
4356;DHT22;64374;51.482;7.408;2022-10-16T02:29:24;16.50;99.90
4356;DHT22;64374;51.482;7.408;2022-10-16T02:31:56;16.70;99.90
4356;DHT22;64374;51.482;7.408;2022-10-16T02:34:26;16.70;99.90
4356;DHT22;64374;51.482;7.408;2022-10-16T02:36:57;16.90;99.90
4356;DHT22;64374;51.482;7.408;2022-10-16T02:39:28;17.00;99.90
4356;DHT22;64374;51.482;7.408;2022-10-16T02:42:00;17.00;99.90
4356;DHT22;64374;51.482;7.408;2022-10-16T02:44:33;17.00;99.90
4356;DHT22;64374;51.482;7.408;2022-10-16T02:47:04;17.10;99.90
4356;DHT22;64374;51.482;7.408;2022-10-16T02:49:40;17.20;99.90
4356;DHT22;64374;51.482;7.408;2022-10-16T02:52:08;17.10;99.90
4356;DHT22;64374;51.482;7.408;2022-10-16T02:54:37;17.00;99.90
4356;DHT22;64374;51.482;7.408;2022-10-16T02:57:08;17.10;99.90
4356;DHT22;64374;51.482;7.408;2022-10-16T02:59:40;16.80;99.90
4356;DHT22;64374;51.482;7.408;2022-10-16T03:02:08;16.90;99.90
4356;DHT22;64374;51.482;7.408;2022-10-16T03:04:39;17.10;99.90
4356;DHT22;64374;51.482;7.408;2022-10-16T03:07:08;17.10;99.90
4356;DHT22;64374;51.482;7.408;2022-10-16T03:09:39;16.80;99.90
4356;DHT22;64374;51.482;7.408;2022-10-16T03:12:09;16.80;99.90
4356;DHT22;64374;51.482;7.408;2022-10-16T03:14:40;16.90;99.90
4356;DHT22;64374;51.482;7.408;2022-10-16T03:17:13;16.90;99.90
4356;DHT22;64374;51.482;7.408;2022-10-16T03:19:43;16.90;99.90
4356;DHT22;64374;51.482;7.408;2022-10-16T03:22:14;17.20;99.90
4356;DHT22;64374;51.482;7.408;2022-10-16T03:24:49;17.30;99.90
4356;DHT22;64374;51.482;7.408;2022-10-16T03:27:18;17.10;99.90
4356;DHT22;64374;51.482;7.408;2022-10-16T03:29:47;16.90;99.90
4356;DHT22;64374;51.482;7.408;2022-10-16T03:32:16;17.00;99.90
4356;DHT22;64374;51.482;7.408;2022-10-16T03:34:45;17.10;99.90
4356;DHT22;64374;51.482;7.408;2022-10-16T03:37:13;17.30;99.90
4356;DHT22;64374;51.482;7.408;2022-10-16T03:39:44;17.20;99.90
4356;DHT22;64374;51.482;7.408;2022-10-16T03:42:13;17.20;99.90
4356;DHT22;64374;51.482;7.408;2022-10-16T03:44:43;17.20;99.90
4356;DHT22;64374;51.482;7.408;2022-10-16T03:47:16;17.30;99.90
4356;DHT22;64374;51.482;7.408;2022-10-16T03:49:56;17.30;99.90
4356;DHT22;64374;51.482;7.408;2022-10-16T03:52:32;17.30;99.90
4356;DHT22;64374;51.482;7.408;2022-10-16T03:55:00;17.20;99.90
4356;DHT22;64374;51.482;7.408;2022-10-16T03:57:29;17.00;99.90
4356;DHT22;64374;51.482;7.408;2022-10-16T03:59:58;17.10;99.90
4356;DHT22;64374;51.482;7.408;2022-10-16T04:02:39;17.20;99.90
4356;DHT22;64374;51.482;7.408;2022-10-16T04:05:08;17.00;99.90
4356;DHT22;64374;51.482;7.408;2022-10-16T04:07:36;17.10;99.90
4356;DHT22;64374;51.482;7.408;2022-10-16T04:10:06;17.20;99.90
4356;DHT22;64374;51.482;7.408;2022-10-16T04:12:34;17.30;99.90
4356;DHT22;64374;51.482;7.408;2022-10-16T04:15:03;17.30;99.90
4356;DHT22;64374;51.482;7.408;2022-10-16T04:17:34;17.40;99.90
4356;DHT22;64374;51.482;7.408;2022-10-16T04:20:06;17.30;99.90
4356;DHT22;64374;51.482;7.408;2022-10-16T04:22:37;17.20;99.90
4356;DHT22;64374;51.482;7.408;2022-10-16T04:25:06;17.20;99.90
4356;DHT22;64374;51.482;7.408;2022-10-16T04:27:34;17.30;99.90
4356;DHT22;64374;51.482;7.408;2022-10-16T04:30:08;17.20;99.90
4356;DHT22;64374;51.482;7.408;2022-10-16T04:32:39;17.10;99.90
4356;DHT22;64374;51.482;7.408;2022-10-16T04:35:12;16.90;99.90
4356;DHT22;64374;51.482;7.408;2022-10-16T04:37:40;16.70;99.90
4356;DHT22;64374;51.482;7.408;2022-10-16T04:40:10;16.30;99.90
4356;DHT22;64374;51.482;7.408;2022-10-16T04:42:39;16.40;99.90
4356;DHT22;64374;51.482;7.408;2022-10-16T04:45:08;16.30;99.90
4356;DHT22;64374;51.482;7.408;2022-10-16T04:47:42;16.50;99.90
4356;DHT22;64374;51.482;7.408;2022-10-16T04:50:11;16.40;99.90
4356;DHT22;64374;51.482;7.408;2022-10-16T04:52:45;16.40;99.90
4356;DHT22;64374;51.482;7.408;2022-10-16T04:55:15;16.40;99.90
4356;DHT22;64374;51.482;7.408;2022-10-16T04:57:44;16.50;99.90
4356;DHT22;64374;51.482;7.408;2022-10-16T05:00:12;16.40;99.90
4356;DHT22;64374;51.482;7.408;2022-10-16T05:02:43;16.50;99.90
4356;DHT22;64374;51.482;7.408;2022-10-16T05:05:18;16.40;99.90
4356;DHT22;64374;51.482;7.408;2022-10-16T05:07:47;16.60;99.90
4356;DHT22;64374;51.482;7.408;2022-10-16T05:10:16;16.50;99.90
4356;DHT22;64374;51.482;7.408;2022-10-16T05:12:52;16.40;99.90
4356;DHT22;64374;51.482;7.408;2022-10-16T05:15:20;16.40;99.90
4356;DHT22;64374;51.482;7.408;2022-10-16T05:17:53;16.70;99.90
4356;DHT22;64374;51.482;7.408;2022-10-16T05:20:26;16.80;99.90
4356;DHT22;64374;51.482;7.408;2022-10-16T05:22:54;16.70;99.90
4356;DHT22;64374;51.482;7.408;2022-10-16T05:25:23;16.80;99.90
4356;DHT22;64374;51.482;7.408;2022-10-16T05:27:55;16.60;99.90
4356;DHT22;64374;51.482;7.408;2022-10-16T05:30:24;16.70;99.90
4356;DHT22;64374;51.482;7.408;2022-10-16T05:32:56;16.70;99.90
4356;DHT22;64374;51.482;7.408;2022-10-16T05:35:26;16.70;99.90
4356;DHT22;64374;51.482;7.408;2022-10-16T05:37:54;16.90;99.90
4356;DHT22;64374;51.482;7.408;2022-10-16T05:40:22;16.90;99.90
4356;DHT22;64374;51.482;7.408;2022-10-16T05:42:54;16.90;99.90
4356;DHT22;64374;51.482;7.408;2022-10-16T05:45:23;16.90;99.90
4356;DHT22;64374;51.482;7.408;2022-10-16T05:47:51;16.60;99.90
4356;DHT22;64374;51.482;7.408;2022-10-16T05:50:20;16.40;99.90
4356;DHT22;64374;51.482;7.408;2022-10-16T05:52:49;16.60;99.90
4356;DHT22;64374;51.482;7.408;2022-10-16T05:55:18;16.60;99.90
4356;DHT22;64374;51.482;7.408;2022-10-16T05:57:50;16.50;99.90
4356;DHT22;64374;51.482;7.408;2022-10-16T06:00:17;16.30;99.90
4356;DHT22;64374;51.482;7.408;2022-10-16T06:02:46;16.60;99.90
4356;DHT22;64374;51.482;7.408;2022-10-16T06:05:14;16.50;99.90
4356;DHT22;64374;51.482;7.408;2022-10-16T06:07:52;16.50;99.90
4356;DHT22;64374;51.482;7.408;2022-10-16T06:10:20;16.40;99.90
4356;DHT22;64374;51.482;7.408;2022-10-16T06:12:48;16.60;99.90
4356;DHT22;64374;51.482;7.408;2022-10-16T06:15:17;16.70;99.90
4356;DHT22;64374;51.482;7.408;2022-10-16T06:17:45;16.70;99.90
4356;DHT22;64374;51.482;7.408;2022-10-16T06:20:13;16.80;99.90
4356;DHT22;64374;51.482;7.408;2022-10-16T06:22:44;16.70;99.90
4356;DHT22;64374;51.482;7.408;2022-10-16T06:25:16;16.80;99.90
4356;DHT22;64374;51.482;7.408;2022-10-16T06:27:45;16.80;99.90
4356;DHT22;64374;51.482;7.408;2022-10-16T06:30:18;17.00;99.90
4356;DHT22;64374;51.482;7.408;2022-10-16T06:32:48;16.70;99.90
4356;DHT22;64374;51.482;7.408;2022-10-16T06:35:17;16.60;99.90
4356;DHT22;64374;51.482;7.408;2022-10-16T06:37:45;16.60;99.90
4356;DHT22;64374;51.482;7.408;2022-10-16T06:40:13;16.60;99.90
4356;DHT22;64374;51.482;7.408;2022-10-16T06:42:46;16.70;99.90
4356;DHT22;64374;51.482;7.408;2022-10-16T06:45:14;16.60;99.90
4356;DHT22;64374;51.482;7.408;2022-10-16T06:47:52;16.60;99.90
4356;DHT22;64374;51.482;7.408;2022-10-16T06:50:21;16.90;99.90
4356;DHT22;64374;51.482;7.408;2022-10-16T06:52:49;16.40;99.90
4356;DHT22;64374;51.482;7.408;2022-10-16T06:55:17;16.60;99.90
4356;DHT22;64374;51.482;7.408;2022-10-16T06:57:48;16.90;99.90
4356;DHT22;64374;51.482;7.408;2022-10-16T07:00:16;17.00;99.90
4356;DHT22;64374;51.482;7.408;2022-10-16T07:02:45;17.20;99.90
4356;DHT22;64374;51.482;7.408;2022-10-16T07:05:21;17.00;99.90
4356;DHT22;64374;51.482;7.408;2022-10-16T07:07:52;16.90;99.90
4356;DHT22;64374;51.482;7.408;2022-10-16T07:10:21;16.80;99.90
4356;DHT22;64374;51.482;7.408;2022-10-16T07:12:55;17.10;99.90
4356;DHT22;64374;51.482;7.408;2022-10-16T07:15:26;16.70;99.90
4356;DHT22;64374;51.482;7.408;2022-10-16T07:17:54;16.80;99.90
4356;DHT22;64374;51.482;7.408;2022-10-16T07:20:22;17.10;99.90
4356;DHT22;64374;51.482;7.408;2022-10-16T07:22:51;17.10;99.90
4356;DHT22;64374;51.482;7.408;2022-10-16T07:25:20;16.90;99.90
4356;DHT22;64374;51.482;7.408;2022-10-16T07:27:48;16.80;99.90
4356;DHT22;64374;51.482;7.408;2022-10-16T07:30:20;16.70;99.90
4356;DHT22;64374;51.482;7.408;2022-10-16T07:32:51;16.80;99.90
4356;DHT22;64374;51.482;7.408;2022-10-16T07:35:20;16.90;99.90
4356;DHT22;64374;51.482;7.408;2022-10-16T07:37:48;17.00;99.90
4356;DHT22;64374;51.482;7.408;2022-10-16T07:40:19;17.00;99.90
4356;DHT22;64374;51.482;7.408;2022-10-16T07:42:50;17.00;99.90
4356;DHT22;64374;51.482;7.408;2022-10-16T07:45:20;16.80;99.90
4356;DHT22;64374;51.482;7.408;2022-10-16T07:47:48;16.90;99.90
4356;DHT22;64374;51.482;7.408;2022-10-16T07:50:17;16.70;99.90
4356;DHT22;64374;51.482;7.408;2022-10-16T07:52:48;17.00;99.90
4356;DHT22;64374;51.482;7.408;2022-10-16T07:55:17;17.20;99.90
4356;DHT22;64374;51.482;7.408;2022-10-16T07:57:45;16.80;99.90
4356;DHT22;64374;51.482;7.408;2022-10-16T08:00:14;17.10;99.90
4356;DHT22;64374;51.482;7.408;2022-10-16T08:02:46;17.20;99.90
4356;DHT22;64374;51.482;7.408;2022-10-16T08:05:15;16.90;99.90
4356;DHT22;64374;51.482;7.408;2022-10-16T08:07:48;17.10;99.90
4356;DHT22;64374;51.482;7.408;2022-10-16T08:10:21;17.20;99.90
4356;DHT22;64374;51.482;7.408;2022-10-16T08:12:52;17.20;99.90
4356;DHT22;64374;51.482;7.408;2022-10-16T08:15:21;17.30;99.90
4356;DHT22;64374;51.482;7.408;2022-10-16T08:18:06;17.10;99.90
4356;DHT22;64374;51.482;7.408;2022-10-16T08:20:34;17.10;99.90
4356;DHT22;64374;51.482;7.408;2022-10-16T08:23:02;17.20;99.90
4356;DHT22;64374;51.482;7.408;2022-10-16T08:25:31;17.00;99.90
4356;DHT22;64374;51.482;7.408;2022-10-16T08:28:03;17.20;99.90
4356;DHT22;64374;51.482;7.408;2022-10-16T08:30:37;17.20;99.90
4356;DHT22;64374;51.482;7.408;2022-10-16T08:33:09;17.10;99.90
4356;DHT22;64374;51.482;7.408;2022-10-16T08:35:37;16.90;99.90
4356;DHT22;64374;51.482;7.408;2022-10-16T08:38:09;17.10;99.90
4356;DHT22;64374;51.482;7.408;2022-10-16T08:40:37;17.20;99.90
4356;DHT22;64374;51.482;7.408;2022-10-16T08:46:21;17.10;99.90
4356;DHT22;64374;51.482;7.408;2022-10-16T08:48:54;17.20;99.90
4356;DHT22;64374;51.482;7.408;2022-10-16T08:51:27;17.00;99.90
4356;DHT22;64374;51.482;7.408;2022-10-16T08:54:26;17.00;99.90
4356;DHT22;64374;51.482;7.408;2022-10-16T08:56:57;17.30;99.90
4356;DHT22;64374;51.482;7.408;2022-10-16T08:59:28;17.60;99.90
4356;DHT22;64374;51.482;7.408;2022-10-16T09:01:59;17.80;99.90
4356;DHT22;64374;51.482;7.408;2022-10-16T09:04:54;17.80;99.90
4356;DHT22;64374;51.482;7.408;2022-10-16T09:07:29;17.80;99.90
4356;DHT22;64374;51.482;7.408;2022-10-16T09:10:15;17.70;99.90
4356;DHT22;64374;51.482;7.408;2022-10-16T09:13:06;17.90;99.90
4356;DHT22;64374;51.482;7.408;2022-10-16T09:15:43;17.70;99.90
4356;DHT22;64374;51.482;7.408;2022-10-16T09:18:20;17.80;99.90
4356;DHT22;64374;51.482;7.408;2022-10-16T09:21:05;17.90;99.90
4356;DHT22;64374;51.482;7.408;2022-10-16T09:23:36;17.80;99.90
4356;DHT22;64374;51.482;7.408;2022-10-16T09:26:08;17.80;99.90
4356;DHT22;64374;51.482;7.408;2022-10-16T09:28:38;17.90;99.90
4356;DHT22;64374;51.482;7.408;2022-10-16T09:31:23;18.00;99.90
4356;DHT22;64374;51.482;7.408;2022-10-16T09:33:54;18.20;99.90
4356;DHT22;64374;51.482;7.408;2022-10-16T09:36:27;18.20;99.90
4356;DHT22;64374;51.482;7.408;2022-10-16T09:39:04;18.20;99.90
4356;DHT22;64374;51.482;7.408;2022-10-16T09:41:34;18.20;99.90
4356;DHT22;64374;51.482;7.408;2022-10-16T09:44:05;18.30;99.90
4356;DHT22;64374;51.482;7.408;2022-10-16T09:46:35;18.50;99.90
4356;DHT22;64374;51.482;7.408;2022-10-16T09:49:16;18.50;99.90
4356;DHT22;64374;51.482;7.408;2022-10-16T09:51:48;18.70;99.90
4356;DHT22;64374;51.482;7.408;2022-10-16T09:54:18;18.70;99.90
4356;DHT22;64374;51.482;7.408;2022-10-16T09:56:48;18.90;99.90
4356;DHT22;64374;51.482;7.408;2022-10-16T09:59:20;18.90;99.90
4356;DHT22;64374;51.482;7.408;2022-10-16T10:01:55;19.00;99.90
4356;DHT22;64374;51.482;7.408;2022-10-16T10:04:39;18.90;99.90
4356;DHT22;64374;51.482;7.408;2022-10-16T10:07:17;19.00;99.90
4356;DHT22;64374;51.482;7.408;2022-10-16T10:09:46;19.10;99.90
4356;DHT22;64374;51.482;7.408;2022-10-16T10:12:21;19.40;99.90
4356;DHT22;64374;51.482;7.408;2022-10-16T10:14:54;19.60;99.90
4356;DHT22;64374;51.482;7.408;2022-10-16T10:17:25;19.90;99.90
4356;DHT22;64374;51.482;7.408;2022-10-16T10:19:55;20.50;99.90
4356;DHT22;64374;51.482;7.408;2022-10-16T10:22:30;20.80;99.90
4356;DHT22;64374;51.482;7.408;2022-10-16T10:25:24;21.70;99.90
4356;DHT22;64374;51.482;7.408;2022-10-16T10:30:56;22.60;99.90
4356;DHT22;64374;51.482;7.408;2022-10-16T10:33:34;22.10;99.90
4356;DHT22;64374;51.482;7.408;2022-10-16T10:36:27;22.80;99.90
4356;DHT22;64374;51.482;7.408;2022-10-16T10:39:06;23.30;99.90
4356;DHT22;64374;51.482;7.408;2022-10-16T10:47:40;24.60;99.90
4356;DHT22;64374;51.482;7.408;2022-10-16T10:50:17;24.50;99.90
4356;DHT22;64374;51.482;7.408;2022-10-16T10:53:09;24.10;99.90
4356;DHT22;64374;51.482;7.408;2022-10-16T10:55:51;23.80;99.90
4356;DHT22;64374;51.482;7.408;2022-10-16T10:58:49;23.70;99.90
4356;DHT22;64374;51.482;7.408;2022-10-16T11:01:26;23.30;99.90
4356;DHT22;64374;51.482;7.408;2022-10-16T11:04:29;23.20;99.90
4356;DHT22;64374;51.482;7.408;2022-10-16T11:07:04;22.90;99.90
4356;DHT22;64374;51.482;7.408;2022-10-16T11:09:39;23.60;99.90
4356;DHT22;64374;51.482;7.408;2022-10-16T11:12:18;24.40;99.90
4356;DHT22;64374;51.482;7.408;2022-10-16T11:14:56;25.20;99.90
4356;DHT22;64374;51.482;7.408;2022-10-16T11:17:42;26.00;99.90
4356;DHT22;64374;51.482;7.408;2022-10-16T11:20:16;26.40;99.90
4356;DHT22;64374;51.482;7.408;2022-10-16T11:22:48;26.50;99.90
4356;DHT22;64374;51.482;7.408;2022-10-16T11:25:21;26.20;99.90
4356;DHT22;64374;51.482;7.408;2022-10-16T11:27:54;25.80;99.90
4356;DHT22;64374;51.482;7.408;2022-10-16T11:30:26;26.00;99.90
4356;DHT22;64374;51.482;7.408;2022-10-16T11:33:10;25.50;99.90
4356;DHT22;64374;51.482;7.408;2022-10-16T11:35:46;25.30;99.90
4356;DHT22;64374;51.482;7.408;2022-10-16T11:38:20;25.10;99.90
4356;DHT22;64374;51.482;7.408;2022-10-16T11:40:54;24.90;99.90
4356;DHT22;64374;51.482;7.408;2022-10-16T11:43:29;24.20;99.90
4356;DHT22;64374;51.482;7.408;2022-10-16T11:46:04;24.20;99.90
4356;DHT22;64374;51.482;7.408;2022-10-16T11:48:39;24.60;99.90
4356;DHT22;64374;51.482;7.408;2022-10-16T11:51:19;25.00;99.90
4356;DHT22;64374;51.482;7.408;2022-10-16T11:53:55;25.00;99.90
4356;DHT22;64374;51.482;7.408;2022-10-16T11:56:24;24.60;99.90
4356;DHT22;64374;51.482;7.408;2022-10-16T11:58:57;24.20;99.90
4356;DHT22;64374;51.482;7.408;2022-10-16T12:01:32;24.00;99.90
4356;DHT22;64374;51.482;7.408;2022-10-16T12:04:14;24.00;99.90
4356;DHT22;64374;51.482;7.408;2022-10-16T12:06:47;24.30;99.90
4356;DHT22;64374;51.482;7.408;2022-10-16T12:09:21;24.10;99.90
4356;DHT22;64374;51.482;7.408;2022-10-16T12:11:50;23.90;99.90
4356;DHT22;64374;51.482;7.408;2022-10-16T12:14:36;23.60;99.90
4356;DHT22;64374;51.482;7.408;2022-10-16T12:17:27;23.80;99.90
4356;DHT22;64374;51.482;7.408;2022-10-16T12:20:19;24.30;99.90
4356;DHT22;64374;51.482;7.408;2022-10-16T12:22:49;24.40;99.90
4356;DHT22;64374;51.482;7.408;2022-10-16T12:25:25;24.50;99.90
4356;DHT22;64374;51.482;7.408;2022-10-16T12:28:04;24.60;99.90
4356;DHT22;64374;51.482;7.408;2022-10-16T12:30:36;24.60;99.90
4356;DHT22;64374;51.482;7.408;2022-10-16T12:33:06;24.60;99.90
4356;DHT22;64374;51.482;7.408;2022-10-16T12:35:49;24.80;99.90
4356;DHT22;64374;51.482;7.408;2022-10-16T12:38:21;24.80;99.90
4356;DHT22;64374;51.482;7.408;2022-10-16T12:40:58;24.60;99.90
4356;DHT22;64374;51.482;7.408;2022-10-16T12:43:36;24.90;99.90
4356;DHT22;64374;51.482;7.408;2022-10-16T12:46:22;24.90;99.90
4356;DHT22;64374;51.482;7.408;2022-10-16T12:48:52;24.40;99.90
4356;DHT22;64374;51.482;7.408;2022-10-16T12:51:35;24.20;99.90
4356;DHT22;64374;51.482;7.408;2022-10-16T12:54:09;24.80;99.90
4356;DHT22;64374;51.482;7.408;2022-10-16T12:56:46;25.10;99.90
4356;DHT22;64374;51.482;7.408;2022-10-16T12:59:25;24.90;99.90
4356;DHT22;64374;51.482;7.408;2022-10-16T13:02:14;25.20;99.90
4356;DHT22;64374;51.482;7.408;2022-10-16T13:05:05;25.50;99.90
4356;DHT22;64374;51.482;7.408;2022-10-16T13:07:51;25.40;99.90
4356;DHT22;64374;51.482;7.408;2022-10-16T13:10:26;25.70;99.90
4356;DHT22;64374;51.482;7.408;2022-10-16T13:13:19;25.60;99.90
4356;DHT22;64374;51.482;7.408;2022-10-16T13:16:01;25.10;99.90
4356;DHT22;64374;51.482;7.408;2022-10-16T13:18:42;25.00;99.90
4356;DHT22;64374;51.482;7.408;2022-10-16T13:21:24;24.80;99.90
4356;DHT22;64374;51.482;7.408;2022-10-16T13:24:02;24.60;99.90
4356;DHT22;64374;51.482;7.408;2022-10-16T13:26:42;25.50;99.90
4356;DHT22;64374;51.482;7.408;2022-10-16T13:29:13;26.80;99.90
4356;DHT22;64374;51.482;7.408;2022-10-16T13:31:43;28.40;99.90
4356;DHT22;64374;51.482;7.408;2022-10-16T13:34:17;29.40;99.90
4356;DHT22;64374;51.482;7.408;2022-10-16T13:36:47;30.30;99.90
4356;DHT22;64374;51.482;7.408;2022-10-16T13:39:22;30.50;99.90
4356;DHT22;64374;51.482;7.408;2022-10-16T13:42:01;31.00;97.80
4356;DHT22;64374;51.482;7.408;2022-10-16T13:44:39;30.80;96.40
4356;DHT22;64374;51.482;7.408;2022-10-16T13:47:15;30.20;96.00
4356;DHT22;64374;51.482;7.408;2022-10-16T13:54:15;29.10;98.00
4356;DHT22;64374;51.482;7.408;2022-10-16T13:56:43;29.20;97.80
4356;DHT22;64374;51.482;7.408;2022-10-16T13:59:23;29.40;97.90
4356;DHT22;64374;51.482;7.408;2022-10-16T14:01:53;29.50;96.50
4356;DHT22;64374;51.482;7.408;2022-10-16T14:04:48;30.10;95.80
4356;DHT22;64374;51.482;7.408;2022-10-16T14:07:21;30.40;95.40
4356;DHT22;64374;51.482;7.408;2022-10-16T14:09:53;29.70;94.90
4356;DHT22;64374;51.482;7.408;2022-10-16T14:12:23;29.50;94.90
4356;DHT22;64374;51.482;7.408;2022-10-16T14:14:55;28.60;95.00
4356;DHT22;64374;51.482;7.408;2022-10-16T14:17:26;27.80;95.90
4356;DHT22;64374;51.482;7.408;2022-10-16T14:19:57;27.40;96.80
4356;DHT22;64374;51.482;7.408;2022-10-16T14:22:32;26.90;96.90
4356;DHT22;64374;51.482;7.408;2022-10-16T14:25:20;25.90;98.70
4356;DHT22;64374;51.482;7.408;2022-10-16T14:27:58;25.20;99.90
4356;DHT22;64374;51.482;7.408;2022-10-16T14:30:33;25.20;99.90
4356;DHT22;64374;51.482;7.408;2022-10-16T14:33:04;25.40;99.90
4356;DHT22;64374;51.482;7.408;2022-10-16T14:35:35;25.70;99.90
4356;DHT22;64374;51.482;7.408;2022-10-16T14:38:05;25.40;99.90
4356;DHT22;64374;51.482;7.408;2022-10-16T14:40:38;25.40;99.90
4356;DHT22;64374;51.482;7.408;2022-10-16T14:43:06;25.20;99.90
4356;DHT22;64374;51.482;7.408;2022-10-16T14:45:35;25.10;99.90
4356;DHT22;64374;51.482;7.408;2022-10-16T14:48:06;25.10;99.90
4356;DHT22;64374;51.482;7.408;2022-10-16T14:50:46;24.80;99.90
4356;DHT22;64374;51.482;7.408;2022-10-16T14:53:14;24.60;99.90
4356;DHT22;64374;51.482;7.408;2022-10-16T14:55:44;24.20;99.90
4356;DHT22;64374;51.482;7.408;2022-10-16T14:58:15;24.10;99.90
4356;DHT22;64374;51.482;7.408;2022-10-16T15:00:44;24.10;99.90
4356;DHT22;64374;51.482;7.408;2022-10-16T15:03:13;24.30;99.90
4356;DHT22;64374;51.482;7.408;2022-10-16T15:05:41;24.20;99.90
4356;DHT22;64374;51.482;7.408;2022-10-16T15:08:10;24.20;99.90
4356;DHT22;64374;51.482;7.408;2022-10-16T15:10:41;24.20;99.90
4356;DHT22;64374;51.482;7.408;2022-10-16T15:13:15;24.20;99.90
4356;DHT22;64374;51.482;7.408;2022-10-16T15:15:47;24.20;99.90
4356;DHT22;64374;51.482;7.408;2022-10-16T15:18:18;24.20;99.90
4356;DHT22;64374;51.482;7.408;2022-10-16T15:20:48;24.10;99.90
4356;DHT22;64374;51.482;7.408;2022-10-16T15:23:18;24.20;99.90
4356;DHT22;64374;51.482;7.408;2022-10-16T15:25:52;24.10;99.90
4356;DHT22;64374;51.482;7.408;2022-10-16T15:28:22;23.90;99.90
4356;DHT22;64374;51.482;7.408;2022-10-16T15:30:52;23.80;99.90
4356;DHT22;64374;51.482;7.408;2022-10-16T15:33:23;23.70;99.90
4356;DHT22;64374;51.482;7.408;2022-10-16T15:35:54;23.40;99.90
4356;DHT22;64374;51.482;7.408;2022-10-16T15:38:25;23.30;99.90
4356;DHT22;64374;51.482;7.408;2022-10-16T15:40:54;23.40;99.90
4356;DHT22;64374;51.482;7.408;2022-10-16T15:43:24;23.40;99.90
4356;DHT22;64374;51.482;7.408;2022-10-16T15:45:59;23.50;99.90
4356;DHT22;64374;51.482;7.408;2022-10-16T15:48:28;23.50;99.90
4356;DHT22;64374;51.482;7.408;2022-10-16T15:50:59;23.40;99.90
4356;DHT22;64374;51.482;7.408;2022-10-16T15:53:27;23.30;99.90
4356;DHT22;64374;51.482;7.408;2022-10-16T15:55:56;23.30;99.90
4356;DHT22;64374;51.482;7.408;2022-10-16T15:58:27;23.10;99.90
4356;DHT22;64374;51.482;7.408;2022-10-16T16:00:57;23.00;99.90
4356;DHT22;64374;51.482;7.408;2022-10-16T16:03:30;23.00;99.90
4356;DHT22;64374;51.482;7.408;2022-10-16T16:06:03;23.00;99.90
4356;DHT22;64374;51.482;7.408;2022-10-16T16:08:32;23.10;99.90
4356;DHT22;64374;51.482;7.408;2022-10-16T16:11:02;23.10;99.90
4356;DHT22;64374;51.482;7.408;2022-10-16T16:13:32;23.10;99.90
4356;DHT22;64374;51.482;7.408;2022-10-16T16:16:00;23.00;99.90
4356;DHT22;64374;51.482;7.408;2022-10-16T16:18:28;22.90;99.90
4356;DHT22;64374;51.482;7.408;2022-10-16T16:20:57;23.10;99.90
4356;DHT22;64374;51.482;7.408;2022-10-16T16:23:25;23.00;99.90
4356;DHT22;64374;51.482;7.408;2022-10-16T16:26:06;23.00;99.90
4356;DHT22;64374;51.482;7.408;2022-10-16T16:28:39;22.90;99.90
4356;DHT22;64374;51.482;7.408;2022-10-16T16:31:10;23.00;99.90
4356;DHT22;64374;51.482;7.408;2022-10-16T16:33:38;22.80;99.90
4356;DHT22;64374;51.482;7.408;2022-10-16T16:36:07;22.90;99.90
4356;DHT22;64374;51.482;7.408;2022-10-16T16:38:41;22.80;99.90